sensor_id;sensor_type;location;lat;lon;timestamp;P1;durP1;ratioP1;P2;durP2;ratioP2
64712;SDS011;51140;45.340;5.980;2023-04-25T00:00:40;6.50;;;2.15;;
64712;SDS011;51140;45.340;5.980;2023-04-25T00:03:05;8.95;;;2.63;;
64712;SDS011;51140;45.340;5.980;2023-04-25T00:05:30;5.72;;;2.33;;
64712;SDS011;51140;45.340;5.980;2023-04-25T00:07:56;7.35;;;2.30;;
64712;SDS011;51140;45.340;5.980;2023-04-25T00:10:23;6.95;;;2.30;;
64712;SDS011;51140;45.340;5.980;2023-04-25T00:12:48;6.40;;;2.50;;
64712;SDS011;51140;45.340;5.980;2023-04-25T00:15:14;7.63;;;2.30;;
64712;SDS011;51140;45.340;5.980;2023-04-25T00:17:39;10.43;;;2.40;;
64712;SDS011;51140;45.340;5.980;2023-04-25T00:20:05;8.00;;;2.08;;
64712;SDS011;51140;45.340;5.980;2023-04-25T00:22:34;8.52;;;2.50;;
64712;SDS011;51140;45.340;5.980;2023-04-25T00:24:59;9.02;;;2.60;;
64712;SDS011;51140;45.340;5.980;2023-04-25T00:27:25;6.95;;;2.30;;
64712;SDS011;51140;45.340;5.980;2023-04-25T00:29:51;6.65;;;2.28;;
64712;SDS011;51140;45.340;5.980;2023-04-25T00:32:16;6.97;;;2.20;;
64712;SDS011;51140;45.340;5.980;2023-04-25T00:34:42;6.72;;;2.10;;
64712;SDS011;51140;45.340;5.980;2023-04-25T00:37:07;6.88;;;1.98;;
64712;SDS011;51140;45.340;5.980;2023-04-25T00:39:32;10.75;;;2.33;;
64712;SDS011;51140;45.340;5.980;2023-04-25T00:41:58;6.43;;;2.35;;
64712;SDS011;51140;45.340;5.980;2023-04-25T00:44:24;7.75;;;2.50;;
64712;SDS011;51140;45.340;5.980;2023-04-25T00:46:51;8.73;;;2.38;;
64712;SDS011;51140;45.340;5.980;2023-04-25T00:49:17;6.70;;;2.38;;
64712;SDS011;51140;45.340;5.980;2023-04-25T00:51:43;5.75;;;2.20;;
64712;SDS011;51140;45.340;5.980;2023-04-25T00:54:11;9.73;;;2.60;;
64712;SDS011;51140;45.340;5.980;2023-04-25T00:56:37;5.80;;;2.28;;
64712;SDS011;51140;45.340;5.980;2023-04-25T00:59:03;5.40;;;2.30;;
64712;SDS011;51140;45.340;5.980;2023-04-25T01:01:29;6.72;;;2.40;;
64712;SDS011;51140;45.340;5.980;2023-04-25T01:03:56;5.40;;;2.30;;
64712;SDS011;51140;45.340;5.980;2023-04-25T01:06:23;6.45;;;2.50;;
64712;SDS011;51140;45.340;5.980;2023-04-25T01:08:48;9.68;;;2.95;;
64712;SDS011;51140;45.340;5.980;2023-04-25T01:11:14;7.88;;;2.50;;
64712;SDS011;51140;45.340;5.980;2023-04-25T01:13:39;6.78;;;2.35;;
64712;SDS011;51140;45.340;5.980;2023-04-25T01:16:05;6.85;;;2.15;;
64712;SDS011;51140;45.340;5.980;2023-04-25T01:18:31;6.80;;;2.33;;
64712;SDS011;51140;45.340;5.980;2023-04-25T01:20:56;8.32;;;2.25;;
64712;SDS011;51140;45.340;5.980;2023-04-25T01:23:31;6.00;;;2.05;;
64712;SDS011;51140;45.340;5.980;2023-04-25T01:25:58;8.65;;;2.42;;
64712;SDS011;51140;45.340;5.980;2023-04-25T01:28:24;6.25;;;2.30;;
64712;SDS011;51140;45.340;5.980;2023-04-25T01:30:49;7.60;;;2.63;;
64712;SDS011;51140;45.340;5.980;2023-04-25T01:33:16;9.07;;;2.70;;
64712;SDS011;51140;45.340;5.980;2023-04-25T01:35:44;7.38;;;2.67;;
64712;SDS011;51140;45.340;5.980;2023-04-25T01:38:09;7.65;;;2.60;;
64712;SDS011;51140;45.340;5.980;2023-04-25T01:40:36;9.27;;;2.97;;
64712;SDS011;51140;45.340;5.980;2023-04-25T01:43:05;8.30;;;2.50;;
64712;SDS011;51140;45.340;5.980;2023-04-25T01:45:31;7.00;;;2.78;;
64712;SDS011;51140;45.340;5.980;2023-04-25T01:47:58;7.53;;;2.08;;
64712;SDS011;51140;45.340;5.980;2023-04-25T01:50:24;8.70;;;2.72;;
64712;SDS011;51140;45.340;5.980;2023-04-25T01:52:50;9.95;;;2.45;;
64712;SDS011;51140;45.340;5.980;2023-04-25T01:55:16;9.18;;;2.53;;
64712;SDS011;51140;45.340;5.980;2023-04-25T01:57:41;7.00;;;2.60;;
64712;SDS011;51140;45.340;5.980;2023-04-25T02:00:07;10.05;;;2.90;;
64712;SDS011;51140;45.340;5.980;2023-04-25T02:02:34;8.68;;;2.10;;
64712;SDS011;51140;45.340;5.980;2023-04-25T02:05:00;7.72;;;2.75;;
64712;SDS011;51140;45.340;5.980;2023-04-25T02:07:25;5.57;;;2.45;;
64712;SDS011;51140;45.340;5.980;2023-04-25T02:09:51;6.72;;;2.28;;
64712;SDS011;51140;45.340;5.980;2023-04-25T02:12:16;7.10;;;2.45;;
64712;SDS011;51140;45.340;5.980;2023-04-25T02:14:42;8.45;;;2.15;;
64712;SDS011;51140;45.340;5.980;2023-04-25T02:17:07;7.05;;;2.35;;
64712;SDS011;51140;45.340;5.980;2023-04-25T02:19:33;7.13;;;2.97;;
64712;SDS011;51140;45.340;5.980;2023-04-25T02:21:58;8.07;;;2.67;;
64712;SDS011;51140;45.340;5.980;2023-04-25T02:24:23;11.95;;;2.67;;
64712;SDS011;51140;45.340;5.980;2023-04-25T02:26:49;6.72;;;2.40;;
64712;SDS011;51140;45.340;5.980;2023-04-25T02:29:14;5.97;;;2.28;;
64712;SDS011;51140;45.340;5.980;2023-04-25T02:31:40;7.03;;;2.72;;
64712;SDS011;51140;45.340;5.980;2023-04-25T02:34:06;6.40;;;2.63;;
64712;SDS011;51140;45.340;5.980;2023-04-25T02:36:31;9.07;;;2.00;;
64712;SDS011;51140;45.340;5.980;2023-04-25T02:38:59;7.28;;;2.55;;
64712;SDS011;51140;45.340;5.980;2023-04-25T02:41:25;5.00;;;2.28;;
64712;SDS011;51140;45.340;5.980;2023-04-25T02:43:51;10.18;;;2.47;;
64712;SDS011;51140;45.340;5.980;2023-04-25T02:46:16;7.35;;;2.42;;
64712;SDS011;51140;45.340;5.980;2023-04-25T02:48:42;6.15;;;2.22;;
64712;SDS011;51140;45.340;5.980;2023-04-25T02:51:07;9.10;;;2.30;;
64712;SDS011;51140;45.340;5.980;2023-04-25T02:53:32;12.48;;;2.80;;
64712;SDS011;51140;45.340;5.980;2023-04-25T02:55:58;6.63;;;2.30;;
64712;SDS011;51140;45.340;5.980;2023-04-25T02:58:24;5.25;;;2.10;;
64712;SDS011;51140;45.340;5.980;2023-04-25T03:00:49;5.68;;;2.20;;
64712;SDS011;51140;45.340;5.980;2023-04-25T03:03:15;7.57;;;2.20;;
64712;SDS011;51140;45.340;5.980;2023-04-25T03:05:43;4.38;;;2.05;;
64712;SDS011;51140;45.340;5.980;2023-04-25T03:08:08;7.45;;;2.50;;
64712;SDS011;51140;45.340;5.980;2023-04-25T03:10:34;12.85;;;4.75;;
64712;SDS011;51140;45.340;5.980;2023-04-25T03:12:59;13.60;;;5.40;;
64712;SDS011;51140;45.340;5.980;2023-04-25T03:15:25;11.93;;;4.50;;
64712;SDS011;51140;45.340;5.980;2023-04-25T03:17:50;13.10;;;3.90;;
64712;SDS011;51140;45.340;5.980;2023-04-25T03:20:15;7.22;;;3.10;;
64712;SDS011;51140;45.340;5.980;2023-04-25T03:22:41;7.90;;;2.83;;
64712;SDS011;51140;45.340;5.980;2023-04-25T03:25:06;8.13;;;2.40;;
64712;SDS011;51140;45.340;5.980;2023-04-25T03:27:32;10.75;;;2.63;;
64712;SDS011;51140;45.340;5.980;2023-04-25T03:29:58;11.98;;;2.70;;
64712;SDS011;51140;45.340;5.980;2023-04-25T03:32:23;7.43;;;2.40;;
64712;SDS011;51140;45.340;5.980;2023-04-25T03:34:48;8.55;;;2.15;;
64712;SDS011;51140;45.340;5.980;2023-04-25T03:37:14;5.65;;;2.83;;
64712;SDS011;51140;45.340;5.980;2023-04-25T03:39:39;7.22;;;2.70;;
64712;SDS011;51140;45.340;5.980;2023-04-25T03:42:05;9.18;;;2.30;;
64712;SDS011;51140;45.340;5.980;2023-04-25T03:44:30;8.70;;;2.75;;
64712;SDS011;51140;45.340;5.980;2023-04-25T03:46:55;6.55;;;2.53;;
64712;SDS011;51140;45.340;5.980;2023-04-25T03:49:21;7.63;;;2.33;;
64712;SDS011;51140;45.340;5.980;2023-04-25T03:51:46;6.50;;;2.45;;
64712;SDS011;51140;45.340;5.980;2023-04-25T03:54:11;5.38;;;2.55;;
64712;SDS011;51140;45.340;5.980;2023-04-25T03:56:37;5.93;;;2.75;;
64712;SDS011;51140;45.340;5.980;2023-04-25T03:59:02;6.07;;;2.70;;
64712;SDS011;51140;45.340;5.980;2023-04-25T04:01:27;5.32;;;2.33;;
64712;SDS011;51140;45.340;5.980;2023-04-25T04:03:53;6.63;;;2.40;;
64712;SDS011;51140;45.340;5.980;2023-04-25T04:06:18;8.50;;;2.20;;
64712;SDS011;51140;45.340;5.980;2023-04-25T04:08:45;6.78;;;2.63;;
64712;SDS011;51140;45.340;5.980;2023-04-25T04:11:11;10.65;;;3.55;;
64712;SDS011;51140;45.340;5.980;2023-04-25T04:13:36;5.68;;;2.30;;
64712;SDS011;51140;45.340;5.980;2023-04-25T04:16:02;6.47;;;3.10;;
64712;SDS011;51140;45.340;5.980;2023-04-25T04:18:29;8.25;;;3.35;;
64712;SDS011;51140;45.340;5.980;2023-04-25T04:20:54;8.40;;;3.60;;
64712;SDS011;51140;45.340;5.980;2023-04-25T04:23:20;8.05;;;3.08;;
64712;SDS011;51140;45.340;5.980;2023-04-25T04:25:46;8.25;;;2.45;;
64712;SDS011;51140;45.340;5.980;2023-04-25T04:28:12;8.05;;;3.05;;
64712;SDS011;51140;45.340;5.980;2023-04-25T04:30:38;8.27;;;2.95;;
64712;SDS011;51140;45.340;5.980;2023-04-25T04:33:04;7.78;;;2.67;;
64712;SDS011;51140;45.340;5.980;2023-04-25T04:35:29;6.95;;;2.95;;
64712;SDS011;51140;45.340;5.980;2023-04-25T04:37:55;7.25;;;2.75;;
64712;SDS011;51140;45.340;5.980;2023-04-25T04:40:21;11.50;;;3.10;;
64712;SDS011;51140;45.340;5.980;2023-04-25T04:42:46;7.95;;;3.03;;
64712;SDS011;51140;45.340;5.980;2023-04-25T04:45:12;9.10;;;3.05;;
64712;SDS011;51140;45.340;5.980;2023-04-25T04:47:38;8.82;;;3.38;;
64712;SDS011;51140;45.340;5.980;2023-04-25T04:50:05;7.97;;;3.00;;
64712;SDS011;51140;45.340;5.980;2023-04-25T04:52:33;6.40;;;2.95;;
64712;SDS011;51140;45.340;5.980;2023-04-25T04:54:59;6.90;;;2.75;;
64712;SDS011;51140;45.340;5.980;2023-04-25T04:57:24;8.82;;;2.72;;
64712;SDS011;51140;45.340;5.980;2023-04-25T04:59:50;6.57;;;2.88;;
64712;SDS011;51140;45.340;5.980;2023-04-25T05:02:16;10.35;;;2.50;;
64712;SDS011;51140;45.340;5.980;2023-04-25T05:04:41;9.02;;;3.00;;
64712;SDS011;51140;45.340;5.980;2023-04-25T05:07:07;7.50;;;3.00;;
64712;SDS011;51140;45.340;5.980;2023-04-25T05:09:32;12.48;;;2.75;;
64712;SDS011;51140;45.340;5.980;2023-04-25T05:11:58;12.75;;;3.00;;
64712;SDS011;51140;45.340;5.980;2023-04-25T05:14:23;8.35;;;2.90;;
64712;SDS011;51140;45.340;5.980;2023-04-25T05:16:48;9.98;;;3.35;;
64712;SDS011;51140;45.340;5.980;2023-04-25T05:19:14;7.63;;;3.53;;
64712;SDS011;51140;45.340;5.980;2023-04-25T05:21:39;8.30;;;3.83;;
64712;SDS011;51140;45.340;5.980;2023-04-25T05:24:05;8.02;;;3.55;;
64712;SDS011;51140;45.340;5.980;2023-04-25T05:26:30;10.32;;;3.30;;
64712;SDS011;51140;45.340;5.980;2023-04-25T05:28:56;7.78;;;3.58;;
64712;SDS011;51140;45.340;5.980;2023-04-25T05:31:22;9.90;;;3.85;;
64712;SDS011;51140;45.340;5.980;2023-04-25T05:33:48;10.25;;;3.50;;
64712;SDS011;51140;45.340;5.980;2023-04-25T05:36:13;12.70;;;3.28;;
64712;SDS011;51140;45.340;5.980;2023-04-25T05:38:38;10.55;;;3.00;;
64712;SDS011;51140;45.340;5.980;2023-04-25T05:41:04;7.70;;;3.00;;
64712;SDS011;51140;45.340;5.980;2023-04-25T05:43:29;12.02;;;3.75;;
64712;SDS011;51140;45.340;5.980;2023-04-25T05:45:55;8.20;;;3.20;;
64712;SDS011;51140;45.340;5.980;2023-04-25T05:48:20;6.85;;;3.00;;
64712;SDS011;51140;45.340;5.980;2023-04-25T05:50:45;7.55;;;3.28;;
64712;SDS011;51140;45.340;5.980;2023-04-25T05:53:11;7.97;;;3.42;;
64712;SDS011;51140;45.340;5.980;2023-04-25T05:55:36;8.27;;;3.28;;
64712;SDS011;51140;45.340;5.980;2023-04-25T05:58:02;7.88;;;3.45;;
64712;SDS011;51140;45.340;5.980;2023-04-25T06:00:27;9.05;;;3.05;;
64712;SDS011;51140;45.340;5.980;2023-04-25T06:02:52;9.55;;;3.40;;
64712;SDS011;51140;45.340;5.980;2023-04-25T06:05:18;11.25;;;4.13;;
64712;SDS011;51140;45.340;5.980;2023-04-25T06:07:43;8.82;;;4.25;;
64712;SDS011;51140;45.340;5.980;2023-04-25T06:10:09;10.00;;;4.18;;
64712;SDS011;51140;45.340;5.980;2023-04-25T06:12:34;13.95;;;4.90;;
64712;SDS011;51140;45.340;5.980;2023-04-25T06:15:00;12.43;;;4.95;;
64712;SDS011;51140;45.340;5.980;2023-04-25T06:17:25;12.05;;;6.03;;
64712;SDS011;51140;45.340;5.980;2023-04-25T06:19:51;10.63;;;5.18;;
64712;SDS011;51140;45.340;5.980;2023-04-25T06:22:16;12.68;;;4.88;;
64712;SDS011;51140;45.340;5.980;2023-04-25T06:24:42;12.30;;;5.63;;
64712;SDS011;51140;45.340;5.980;2023-04-25T06:27:07;11.07;;;4.70;;
64712;SDS011;51140;45.340;5.980;2023-04-25T06:29:32;9.38;;;4.88;;
64712;SDS011;51140;45.340;5.980;2023-04-25T06:31:58;8.65;;;4.45;;
64712;SDS011;51140;45.340;5.980;2023-04-25T06:34:23;8.57;;;4.40;;
64712;SDS011;51140;45.340;5.980;2023-04-25T06:36:49;7.35;;;3.95;;
64712;SDS011;51140;45.340;5.980;2023-04-25T06:39:14;8.00;;;3.80;;
64712;SDS011;51140;45.340;5.980;2023-04-25T06:41:40;10.70;;;4.13;;
64712;SDS011;51140;45.340;5.980;2023-04-25T06:44:05;9.50;;;3.95;;
64712;SDS011;51140;45.340;5.980;2023-04-25T06:46:31;10.30;;;3.90;;
64712;SDS011;51140;45.340;5.980;2023-04-25T06:48:56;11.38;;;4.60;;
64712;SDS011;51140;45.340;5.980;2023-04-25T06:51:22;11.27;;;4.45;;
64712;SDS011;51140;45.340;5.980;2023-04-25T06:53:49;13.85;;;4.35;;
64712;SDS011;51140;45.340;5.980;2023-04-25T06:56:14;8.30;;;4.18;;
64712;SDS011;51140;45.340;5.980;2023-04-25T06:58:41;12.02;;;4.43;;
64712;SDS011;51140;45.340;5.980;2023-04-25T07:01:06;13.55;;;4.30;;
64712;SDS011;51140;45.340;5.980;2023-04-25T07:03:31;10.88;;;4.47;;
64712;SDS011;51140;45.340;5.980;2023-04-25T07:05:57;9.07;;;4.50;;
64712;SDS011;51140;45.340;5.980;2023-04-25T07:08:22;10.70;;;4.57;;
64712;SDS011;51140;45.340;5.980;2023-04-25T07:10:47;9.30;;;4.93;;
64712;SDS011;51140;45.340;5.980;2023-04-25T07:13:13;17.13;;;5.05;;
64712;SDS011;51140;45.340;5.980;2023-04-25T07:15:38;13.55;;;5.20;;
64712;SDS011;51140;45.340;5.980;2023-04-25T07:18:03;10.70;;;4.55;;
64712;SDS011;51140;45.340;5.980;2023-04-25T07:20:29;9.55;;;4.53;;
64712;SDS011;51140;45.340;5.980;2023-04-25T07:22:55;11.07;;;5.22;;
64712;SDS011;51140;45.340;5.980;2023-04-25T07:25:21;13.93;;;5.80;;
64712;SDS011;51140;45.340;5.980;2023-04-25T07:27:47;9.32;;;5.35;;
64712;SDS011;51140;45.340;5.980;2023-04-25T07:30:13;14.15;;;5.50;;
64712;SDS011;51140;45.340;5.980;2023-04-25T07:32:38;12.55;;;5.95;;
64712;SDS011;51140;45.340;5.980;2023-04-25T07:35:04;13.88;;;5.95;;
64712;SDS011;51140;45.340;5.980;2023-04-25T07:37:31;11.35;;;5.75;;
64712;SDS011;51140;45.340;5.980;2023-04-25T07:39:57;11.00;;;5.63;;
64712;SDS011;51140;45.340;5.980;2023-04-25T07:42:22;13.95;;;5.60;;
64712;SDS011;51140;45.340;5.980;2023-04-25T07:44:48;9.75;;;5.15;;
64712;SDS011;51140;45.340;5.980;2023-04-25T07:47:13;10.15;;;5.45;;
64712;SDS011;51140;45.340;5.980;2023-04-25T07:49:39;9.80;;;5.60;;
64712;SDS011;51140;45.340;5.980;2023-04-25T07:52:05;12.88;;;6.28;;
64712;SDS011;51140;45.340;5.980;2023-04-25T07:54:34;12.05;;;6.68;;
64712;SDS011;51140;45.340;5.980;2023-04-25T07:56:59;14.32;;;7.38;;
64712;SDS011;51140;45.340;5.980;2023-04-25T07:59:24;12.05;;;6.03;;
64712;SDS011;51140;45.340;5.980;2023-04-25T08:01:50;14.77;;;5.78;;
64712;SDS011;51140;45.340;5.980;2023-04-25T08:04:15;13.02;;;5.72;;
64712;SDS011;51140;45.340;5.980;2023-04-25T08:06:41;11.05;;;5.25;;
64712;SDS011;51140;45.340;5.980;2023-04-25T08:09:06;11.77;;;5.20;;
64712;SDS011;51140;45.340;5.980;2023-04-25T08:11:34;12.93;;;5.40;;
64712;SDS011;51140;45.340;5.980;2023-04-25T08:13:59;11.63;;;5.82;;
64712;SDS011;51140;45.340;5.980;2023-04-25T08:16:24;13.13;;;5.47;;
64712;SDS011;51140;45.340;5.980;2023-04-25T08:18:50;9.77;;;5.45;;
64712;SDS011;51140;45.340;5.980;2023-04-25T08:21:15;11.98;;;5.38;;
64712;SDS011;51140;45.340;5.980;2023-04-25T08:23:41;11.40;;;5.68;;
64712;SDS011;51140;45.340;5.980;2023-04-25T08:26:06;13.57;;;6.03;;
64712;SDS011;51140;45.340;5.980;2023-04-25T08:28:32;9.63;;;5.43;;
64712;SDS011;51140;45.340;5.980;2023-04-25T08:30:57;12.48;;;5.70;;
64712;SDS011;51140;45.340;5.980;2023-04-25T08:33:22;11.90;;;5.88;;
64712;SDS011;51140;45.340;5.980;2023-04-25T08:35:48;10.57;;;5.13;;
64712;SDS011;51140;45.340;5.980;2023-04-25T08:38:14;15.50;;;5.15;;
64712;SDS011;51140;45.340;5.980;2023-04-25T08:40:39;10.25;;;6.53;;
64712;SDS011;51140;45.340;5.980;2023-04-25T08:43:06;11.57;;;5.25;;
64712;SDS011;51140;45.340;5.980;2023-04-25T08:45:36;10.57;;;5.35;;
64712;SDS011;51140;45.340;5.980;2023-04-25T08:48:04;12.82;;;6.15;;
64712;SDS011;51140;45.340;5.980;2023-04-25T08:50:32;14.50;;;5.25;;
64712;SDS011;51140;45.340;5.980;2023-04-25T08:52:59;8.50;;;4.85;;
64712;SDS011;51140;45.340;5.980;2023-04-25T08:55:28;11.10;;;5.55;;
64712;SDS011;51140;45.340;5.980;2023-04-25T08:57:55;9.00;;;4.50;;
64712;SDS011;51140;45.340;5.980;2023-04-25T09:00:21;10.25;;;4.32;;
64712;SDS011;51140;45.340;5.980;2023-04-25T09:02:47;11.02;;;5.10;;
64712;SDS011;51140;45.340;5.980;2023-04-25T09:05:13;9.48;;;4.90;;
64712;SDS011;51140;45.340;5.980;2023-04-25T09:07:39;8.13;;;4.85;;
64712;SDS011;51140;45.340;5.980;2023-04-25T09:10:05;8.70;;;4.47;;
64712;SDS011;51140;45.340;5.980;2023-04-25T09:12:30;9.02;;;4.28;;
64712;SDS011;51140;45.340;5.980;2023-04-25T09:17:35;6.57;;;3.88;;
64712;SDS011;51140;45.340;5.980;2023-04-25T09:20:14;10.05;;;4.03;;
64712;SDS011;51140;45.340;5.980;2023-04-25T09:22:40;7.47;;;3.80;;
64712;SDS011;51140;45.340;5.980;2023-04-25T09:25:09;6.97;;;3.85;;
64712;SDS011;51140;45.340;5.980;2023-04-25T09:27:36;6.38;;;3.50;;
64712;SDS011;51140;45.340;5.980;2023-04-25T09:30:01;6.95;;;3.40;;
64712;SDS011;51140;45.340;5.980;2023-04-25T09:32:27;6.15;;;3.08;;
64712;SDS011;51140;45.340;5.980;2023-04-25T09:34:56;7.47;;;3.03;;
64712;SDS011;51140;45.340;5.980;2023-04-25T09:37:27;8.82;;;3.15;;
64712;SDS011;51140;45.340;5.980;2023-04-25T09:39:57;6.63;;;2.95;;
64712;SDS011;51140;45.340;5.980;2023-04-25T09:42:30;6.55;;;2.92;;
64712;SDS011;51140;45.340;5.980;2023-04-25T09:44:57;8.55;;;2.83;;
64712;SDS011;51140;45.340;5.980;2023-04-25T09:47:24;7.30;;;2.80;;
64712;SDS011;51140;45.340;5.980;2023-04-25T09:49:51;6.07;;;2.60;;
64712;SDS011;51140;45.340;5.980;2023-04-25T09:52:19;6.80;;;2.80;;
64712;SDS011;51140;45.340;5.980;2023-04-25T09:54:46;7.60;;;3.15;;
64712;SDS011;51140;45.340;5.980;2023-04-25T09:57:14;5.90;;;2.70;;
64712;SDS011;51140;45.340;5.980;2023-04-25T09:59:44;8.15;;;2.90;;
64712;SDS011;51140;45.340;5.980;2023-04-25T10:02:12;6.07;;;2.30;;
64712;SDS011;51140;45.340;5.980;2023-04-25T10:04:39;6.72;;;2.60;;
64712;SDS011;51140;45.340;5.980;2023-04-25T10:07:06;7.32;;;2.90;;
64712;SDS011;51140;45.340;5.980;2023-04-25T10:09:33;10.32;;;2.42;;
64712;SDS011;51140;45.340;5.980;2023-04-25T10:12:02;5.80;;;2.20;;
64712;SDS011;51140;45.340;5.980;2023-04-25T10:14:29;5.65;;;2.97;;
64712;SDS011;51140;45.340;5.980;2023-04-25T10:16:57;5.28;;;2.30;;
64712;SDS011;51140;45.340;5.980;2023-04-25T10:19:23;7.93;;;2.72;;
64712;SDS011;51140;45.340;5.980;2023-04-25T10:21:51;27.27;;;17.58;;
64712;SDS011;51140;45.340;5.980;2023-04-25T10:24:19;9.93;;;6.10;;
64712;SDS011;51140;45.340;5.980;2023-04-25T10:26:45;11.45;;;8.75;;
64712;SDS011;51140;45.340;5.980;2023-04-25T10:29:12;14.23;;;8.98;;
64712;SDS011;51140;45.340;5.980;2023-04-25T10:31:46;6.50;;;3.63;;
64712;SDS011;51140;45.340;5.980;2023-04-25T10:34:12;7.18;;;3.88;;
64712;SDS011;51140;45.340;5.980;2023-04-25T10:36:38;8.57;;;4.22;;
64712;SDS011;51140;45.340;5.980;2023-04-25T10:39:06;9.05;;;5.47;;
64712;SDS011;51140;45.340;5.980;2023-04-25T10:41:46;10.20;;;5.28;;
64712;SDS011;51140;45.340;5.980;2023-04-25T10:44:13;7.22;;;2.80;;
64712;SDS011;51140;45.340;5.980;2023-04-25T10:46:39;7.60;;;3.00;;
64712;SDS011;51140;45.340;5.980;2023-04-25T10:49:04;6.53;;;3.13;;
64712;SDS011;51140;45.340;5.980;2023-04-25T10:51:33;7.68;;;2.55;;
64712;SDS011;51140;45.340;5.980;2023-04-25T10:54:00;6.38;;;2.80;;
64712;SDS011;51140;45.340;5.980;2023-04-25T10:59:18;5.30;;;2.60;;
64712;SDS011;51140;45.340;5.980;2023-04-25T11:01:50;6.13;;;3.05;;
64712;SDS011;51140;45.340;5.980;2023-04-25T11:04:23;8.20;;;3.72;;
64712;SDS011;51140;45.340;5.980;2023-04-25T11:09:34;5.88;;;3.30;;
64712;SDS011;51140;45.340;5.980;2023-04-25T11:12:00;9.45;;;3.30;;
64712;SDS011;51140;45.340;5.980;2023-04-25T11:14:26;6.55;;;2.72;;
64712;SDS011;51140;45.340;5.980;2023-04-25T11:16:58;8.85;;;3.13;;
64712;SDS011;51140;45.340;5.980;2023-04-25T11:19:25;6.65;;;3.30;;
64712;SDS011;51140;45.340;5.980;2023-04-25T11:21:55;5.25;;;2.33;;
64712;SDS011;51140;45.340;5.980;2023-04-25T11:24:31;7.50;;;3.78;;
64712;SDS011;51140;45.340;5.980;2023-04-25T11:26:58;31.83;;;14.52;;
64712;SDS011;51140;45.340;5.980;2023-04-25T11:29:27;37.42;;;17.02;;
64712;SDS011;51140;45.340;5.980;2023-04-25T11:31:54;14.63;;;7.60;;
64712;SDS011;51140;45.340;5.980;2023-04-25T11:34:23;7.38;;;3.05;;
64712;SDS011;51140;45.340;5.980;2023-04-25T11:36:50;7.38;;;3.15;;
64712;SDS011;51140;45.340;5.980;2023-04-25T11:39:17;7.93;;;3.92;;
64712;SDS011;51140;45.340;5.980;2023-04-25T11:41:43;6.68;;;2.90;;
64712;SDS011;51140;45.340;5.980;2023-04-25T11:44:08;8.63;;;3.30;;
64712;SDS011;51140;45.340;5.980;2023-04-25T11:46:34;8.20;;;3.00;;
64712;SDS011;51140;45.340;5.980;2023-04-25T11:49:00;8.35;;;3.17;;
64712;SDS011;51140;45.340;5.980;2023-04-25T11:51:25;7.63;;;2.75;;
64712;SDS011;51140;45.340;5.980;2023-04-25T11:53:51;6.93;;;2.63;;
64712;SDS011;51140;45.340;5.980;2023-04-25T11:56:16;5.80;;;3.25;;
64712;SDS011;51140;45.340;5.980;2023-04-25T11:59:01;6.68;;;2.90;;
64712;SDS011;51140;45.340;5.980;2023-04-25T12:01:29;7.60;;;2.55;;
64712;SDS011;51140;45.340;5.980;2023-04-25T12:03:55;7.93;;;2.45;;
64712;SDS011;51140;45.340;5.980;2023-04-25T12:06:25;6.88;;;2.20;;
64712;SDS011;51140;45.340;5.980;2023-04-25T12:11:32;6.88;;;2.50;;
64712;SDS011;51140;45.340;5.980;2023-04-25T12:14:05;4.57;;;2.10;;
64712;SDS011;51140;45.340;5.980;2023-04-25T12:16:39;6.57;;;2.47;;
64712;SDS011;51140;45.340;5.980;2023-04-25T12:19:06;7.53;;;2.42;;
64712;SDS011;51140;45.340;5.980;2023-04-25T12:21:32;6.97;;;2.63;;
64712;SDS011;51140;45.340;5.980;2023-04-25T12:24:07;7.47;;;2.70;;
64712;SDS011;51140;45.340;5.980;2023-04-25T12:29:15;5.63;;;2.75;;
64712;SDS011;51140;45.340;5.980;2023-04-25T12:31:45;6.25;;;2.42;;
64712;SDS011;51140;45.340;5.980;2023-04-25T12:34:11;6.45;;;2.60;;
64712;SDS011;51140;45.340;5.980;2023-04-25T12:36:37;9.90;;;2.70;;
64712;SDS011;51140;45.340;5.980;2023-04-25T12:39:02;6.90;;;2.75;;
64712;SDS011;51140;45.340;5.980;2023-04-25T12:41:29;7.47;;;2.53;;
64712;SDS011;51140;45.340;5.980;2023-04-25T12:43:55;4.95;;;2.30;;
64712;SDS011;51140;45.340;5.980;2023-04-25T12:46:20;8.43;;;2.95;;
64712;SDS011;51140;45.340;5.980;2023-04-25T12:48:46;8.43;;;2.88;;
64712;SDS011;51140;45.340;5.980;2023-04-25T12:51:11;7.40;;;3.08;;
64712;SDS011;51140;45.340;5.980;2023-04-25T12:53:36;7.32;;;3.30;;
64712;SDS011;51140;45.340;5.980;2023-04-25T12:56:03;11.85;;;5.53;;
64712;SDS011;51140;45.340;5.980;2023-04-25T12:58:29;6.35;;;2.80;;
64712;SDS011;51140;45.340;5.980;2023-04-25T13:00:55;8.35;;;3.55;;
64712;SDS011;51140;45.340;5.980;2023-04-25T13:03:20;6.03;;;2.70;;
64712;SDS011;51140;45.340;5.980;2023-04-25T13:05:46;6.88;;;2.75;;
64712;SDS011;51140;45.340;5.980;2023-04-25T13:08:12;6.28;;;2.38;;
64712;SDS011;51140;45.340;5.980;2023-04-25T13:10:37;8.70;;;2.10;;
64712;SDS011;51140;45.340;5.980;2023-04-25T13:13:04;8.77;;;2.47;;
64712;SDS011;51140;45.340;5.980;2023-04-25T13:15:29;5.07;;;2.13;;
64712;SDS011;51140;45.340;5.980;2023-04-25T13:17:55;9.85;;;3.05;;
64712;SDS011;51140;45.340;5.980;2023-04-25T13:20:20;6.40;;;2.20;;
64712;SDS011;51140;45.340;5.980;2023-04-25T13:22:47;5.53;;;2.38;;
64712;SDS011;51140;45.340;5.980;2023-04-25T13:25:13;8.18;;;2.40;;
64712;SDS011;51140;45.340;5.980;2023-04-25T13:27:38;6.47;;;2.35;;
64712;SDS011;51140;45.340;5.980;2023-04-25T13:30:05;7.28;;;2.83;;
64712;SDS011;51140;45.340;5.980;2023-04-25T13:32:34;6.13;;;2.20;;
64712;SDS011;51140;45.340;5.980;2023-04-25T13:35:04;5.80;;;2.30;;
64712;SDS011;51140;45.340;5.980;2023-04-25T13:37:30;5.70;;;2.00;;
64712;SDS011;51140;45.340;5.980;2023-04-25T13:39:58;6.32;;;2.20;;
64712;SDS011;51140;45.340;5.980;2023-04-25T13:42:25;7.15;;;2.25;;
64712;SDS011;51140;45.340;5.980;2023-04-25T13:44:51;8.50;;;2.60;;
64712;SDS011;51140;45.340;5.980;2023-04-25T13:47:16;7.80;;;2.42;;
64712;SDS011;51140;45.340;5.980;2023-04-25T13:49:42;6.72;;;2.65;;
64712;SDS011;51140;45.340;5.980;2023-04-25T13:52:07;6.03;;;2.38;;
64712;SDS011;51140;45.340;5.980;2023-04-25T13:54:33;6.20;;;2.60;;
64712;SDS011;51140;45.340;5.980;2023-04-25T13:56:58;4.95;;;2.33;;
64712;SDS011;51140;45.340;5.980;2023-04-25T13:59:24;7.03;;;2.45;;
64712;SDS011;51140;45.340;5.980;2023-04-25T14:01:50;9.45;;;2.75;;
64712;SDS011;51140;45.340;5.980;2023-04-25T14:04:16;7.78;;;2.42;;
64712;SDS011;51140;45.340;5.980;2023-04-25T14:06:41;9.38;;;2.88;;
64712;SDS011;51140;45.340;5.980;2023-04-25T14:09:07;4.22;;;2.20;;
64712;SDS011;51140;45.340;5.980;2023-04-25T14:11:35;5.78;;;2.28;;
64712;SDS011;51140;45.340;5.980;2023-04-25T14:14:01;8.27;;;2.53;;
64712;SDS011;51140;45.340;5.980;2023-04-25T14:16:27;4.80;;;1.98;;
64712;SDS011;51140;45.340;5.980;2023-04-25T14:18:52;6.15;;;2.50;;
64712;SDS011;51140;45.340;5.980;2023-04-25T14:21:19;4.88;;;2.08;;
64712;SDS011;51140;45.340;5.980;2023-04-25T14:23:45;5.47;;;2.10;;
64712;SDS011;51140;45.340;5.980;2023-04-25T14:26:11;4.30;;;1.90;;
64712;SDS011;51140;45.340;5.980;2023-04-25T14:28:37;7.78;;;2.10;;
64712;SDS011;51140;45.340;5.980;2023-04-25T14:31:03;4.55;;;1.88;;
64712;SDS011;51140;45.340;5.980;2023-04-25T14:33:29;6.68;;;2.20;;
64712;SDS011;51140;45.340;5.980;2023-04-25T14:35:55;4.80;;;1.70;;
64712;SDS011;51140;45.340;5.980;2023-04-25T14:38:21;7.70;;;1.90;;
64712;SDS011;51140;45.340;5.980;2023-04-25T14:40:48;6.47;;;2.00;;
64712;SDS011;51140;45.340;5.980;2023-04-25T14:43:14;4.68;;;2.17;;
64712;SDS011;51140;45.340;5.980;2023-04-25T14:45:40;6.70;;;1.90;;
64712;SDS011;51140;45.340;5.980;2023-04-25T14:48:05;8.18;;;2.25;;
64712;SDS011;51140;45.340;5.980;2023-04-25T14:50:31;5.30;;;1.80;;
64712;SDS011;51140;45.340;5.980;2023-04-25T14:52:57;6.40;;;1.98;;